sensor_id;sensor_type;location;lat;lon;timestamp;P1;durP1;ratioP1;P2;durP2;ratioP2
43813;SDS011;29669;55.706;37.656;2023-06-22T00:01:48;16.70;;;7.68;;
43813;SDS011;29669;55.706;37.656;2023-06-22T00:04:16;17.33;;;6.53;;
43813;SDS011;29669;55.706;37.656;2023-06-22T00:06:44;18.73;;;6.97;;
43813;SDS011;29669;55.706;37.656;2023-06-22T00:09:12;23.88;;;6.90;;
43813;SDS011;29669;55.706;37.656;2023-06-22T00:11:40;24.13;;;7.20;;
43813;SDS011;29669;55.706;37.656;2023-06-22T00:14:07;24.88;;;7.53;;
43813;SDS011;29669;55.706;37.656;2023-06-22T00:16:35;16.25;;;7.13;;
43813;SDS011;29669;55.706;37.656;2023-06-22T00:19:03;15.80;;;7.05;;
43813;SDS011;29669;55.706;37.656;2023-06-22T00:21:31;26.42;;;6.78;;
43813;SDS011;29669;55.706;37.656;2023-06-22T00:23:58;18.77;;;6.80;;
43813;SDS011;29669;55.706;37.656;2023-06-22T00:26:26;15.55;;;6.63;;
43813;SDS011;29669;55.706;37.656;2023-06-22T00:28:54;15.48;;;6.18;;
43813;SDS011;29669;55.706;37.656;2023-06-22T00:31:22;16.58;;;6.78;;
43813;SDS011;29669;55.706;37.656;2023-06-22T00:33:54;18.70;;;6.07;;
43813;SDS011;29669;55.706;37.656;2023-06-22T00:36:21;15.23;;;6.70;;
43813;SDS011;29669;55.706;37.656;2023-06-22T00:38:51;16.77;;;6.75;;
43813;SDS011;29669;55.706;37.656;2023-06-22T00:41:19;20.55;;;6.80;;
43813;SDS011;29669;55.706;37.656;2023-06-22T00:43:47;17.70;;;5.68;;
43813;SDS011;29669;55.706;37.656;2023-06-22T00:46:15;18.30;;;5.93;;
43813;SDS011;29669;55.706;37.656;2023-06-22T00:48:42;21.95;;;7.10;;
43813;SDS011;29669;55.706;37.656;2023-06-22T00:51:11;15.52;;;5.80;;
43813;SDS011;29669;55.706;37.656;2023-06-22T00:53:38;10.98;;;5.53;;
43813;SDS011;29669;55.706;37.656;2023-06-22T00:56:08;14.75;;;5.80;;
43813;SDS011;29669;55.706;37.656;2023-06-22T00:58:38;12.32;;;5.65;;
43813;SDS011;29669;55.706;37.656;2023-06-22T01:01:09;13.55;;;6.10;;
43813;SDS011;29669;55.706;37.656;2023-06-22T01:03:37;13.82;;;6.45;;
43813;SDS011;29669;55.706;37.656;2023-06-22T01:06:09;20.30;;;6.47;;
43813;SDS011;29669;55.706;37.656;2023-06-22T01:11:39;14.38;;;6.43;;
43813;SDS011;29669;55.706;37.656;2023-06-22T01:14:19;18.40;;;6.78;;
43813;SDS011;29669;55.706;37.656;2023-06-22T01:16:56;12.25;;;6.03;;
43813;SDS011;29669;55.706;37.656;2023-06-22T01:22:24;14.27;;;5.78;;
43813;SDS011;29669;55.706;37.656;2023-06-22T01:25:19;12.90;;;5.55;;
43813;SDS011;29669;55.706;37.656;2023-06-22T01:27:58;20.77;;;6.55;;
43813;SDS011;29669;55.706;37.656;2023-06-22T01:30:45;12.75;;;6.05;;
43813;SDS011;29669;55.706;37.656;2023-06-22T01:33:13;15.32;;;7.05;;
43813;SDS011;29669;55.706;37.656;2023-06-22T01:35:43;15.10;;;5.95;;
43813;SDS011;29669;55.706;37.656;2023-06-22T01:38:12;13.57;;;6.18;;
43813;SDS011;29669;55.706;37.656;2023-06-22T01:40:40;14.75;;;6.03;;
43813;SDS011;29669;55.706;37.656;2023-06-22T01:43:08;20.13;;;6.32;;
43813;SDS011;29669;55.706;37.656;2023-06-22T01:45:38;16.35;;;6.97;;
43813;SDS011;29669;55.706;37.656;2023-06-22T01:48:06;19.30;;;7.03;;
43813;SDS011;29669;55.706;37.656;2023-06-22T01:50:35;13.02;;;6.15;;
43813;SDS011;29669;55.706;37.656;2023-06-22T01:53:03;15.38;;;6.47;;
43813;SDS011;29669;55.706;37.656;2023-06-22T01:55:30;14.82;;;6.20;;
43813;SDS011;29669;55.706;37.656;2023-06-22T01:57:58;21.83;;;6.50;;
43813;SDS011;29669;55.706;37.656;2023-06-22T02:00:26;18.98;;;6.45;;
43813;SDS011;29669;55.706;37.656;2023-06-22T02:02:59;14.25;;;6.65;;
43813;SDS011;29669;55.706;37.656;2023-06-22T02:05:38;18.25;;;6.50;;
43813;SDS011;29669;55.706;37.656;2023-06-22T02:08:11;17.08;;;6.47;;
43813;SDS011;29669;55.706;37.656;2023-06-22T02:10:48;23.65;;;6.70;;
43813;SDS011;29669;55.706;37.656;2023-06-22T02:13:20;13.90;;;5.95;;
43813;SDS011;29669;55.706;37.656;2023-06-22T02:15:48;12.63;;;6.85;;
43813;SDS011;29669;55.706;37.656;2023-06-22T02:18:17;19.80;;;6.53;;
43813;SDS011;29669;55.706;37.656;2023-06-22T02:20:44;17.80;;;6.95;;
43813;SDS011;29669;55.706;37.656;2023-06-22T02:23:12;17.83;;;7.28;;
43813;SDS011;29669;55.706;37.656;2023-06-22T02:25:40;14.65;;;7.20;;
43813;SDS011;29669;55.706;37.656;2023-06-22T02:28:11;13.32;;;6.82;;
43813;SDS011;29669;55.706;37.656;2023-06-22T02:30:39;15.77;;;7.03;;
43813;SDS011;29669;55.706;37.656;2023-06-22T02:33:08;11.10;;;7.28;;
43813;SDS011;29669;55.706;37.656;2023-06-22T02:35:36;17.25;;;7.95;;
43813;SDS011;29669;55.706;37.656;2023-06-22T02:38:04;14.07;;;6.85;;
43813;SDS011;29669;55.706;37.656;2023-06-22T02:40:32;24.98;;;7.13;;
43813;SDS011;29669;55.706;37.656;2023-06-22T02:43:00;14.38;;;7.55;;
43813;SDS011;29669;55.706;37.656;2023-06-22T02:45:31;19.67;;;6.85;;
43813;SDS011;29669;55.706;37.656;2023-06-22T02:47:59;22.17;;;6.75;;
43813;SDS011;29669;55.706;37.656;2023-06-22T02:50:28;30.55;;;9.50;;
43813;SDS011;29669;55.706;37.656;2023-06-22T02:52:57;23.02;;;8.43;;
43813;SDS011;29669;55.706;37.656;2023-06-22T02:55:28;18.73;;;7.22;;
43813;SDS011;29669;55.706;37.656;2023-06-22T02:57:58;14.85;;;6.60;;
43813;SDS011;29669;55.706;37.656;2023-06-22T03:00:30;14.90;;;7.15;;
43813;SDS011;29669;55.706;37.656;2023-06-22T03:03:00;11.00;;;7.40;;
43813;SDS011;29669;55.706;37.656;2023-06-22T03:05:28;21.80;;;7.78;;
43813;SDS011;29669;55.706;37.656;2023-06-22T03:07:58;14.13;;;6.72;;
43813;SDS011;29669;55.706;37.656;2023-06-22T03:10:29;17.00;;;6.38;;
43813;SDS011;29669;55.706;37.656;2023-06-22T03:12:57;18.20;;;7.25;;
43813;SDS011;29669;55.706;37.656;2023-06-22T03:15:24;20.35;;;6.70;;
43813;SDS011;29669;55.706;37.656;2023-06-22T03:17:53;16.98;;;6.57;;
43813;SDS011;29669;55.706;37.656;2023-06-22T03:20:22;26.92;;;6.93;;
43813;SDS011;29669;55.706;37.656;2023-06-22T03:22:50;21.10;;;6.32;;
43813;SDS011;29669;55.706;37.656;2023-06-22T03:25:18;12.85;;;6.72;;
43813;SDS011;29669;55.706;37.656;2023-06-22T03:27:48;18.17;;;6.38;;
43813;SDS011;29669;55.706;37.656;2023-06-22T03:30:16;12.35;;;5.55;;
43813;SDS011;29669;55.706;37.656;2023-06-22T03:32:45;16.10;;;5.95;;
43813;SDS011;29669;55.706;37.656;2023-06-22T03:35:14;14.50;;;6.53;;
43813;SDS011;29669;55.706;37.656;2023-06-22T03:37:42;14.32;;;5.65;;
43813;SDS011;29669;55.706;37.656;2023-06-22T03:40:10;12.52;;;5.00;;
43813;SDS011;29669;55.706;37.656;2023-06-22T03:42:39;17.80;;;6.28;;
43813;SDS011;29669;55.706;37.656;2023-06-22T03:45:09;12.50;;;5.72;;
43813;SDS011;29669;55.706;37.656;2023-06-22T03:47:37;10.60;;;5.43;;
43813;SDS011;29669;55.706;37.656;2023-06-22T03:50:05;13.40;;;5.95;;
43813;SDS011;29669;55.706;37.656;2023-06-22T03:52:34;13.43;;;5.50;;
43813;SDS011;29669;55.706;37.656;2023-06-22T03:55:02;20.30;;;5.18;;
43813;SDS011;29669;55.706;37.656;2023-06-22T03:57:33;18.17;;;5.85;;
43813;SDS011;29669;55.706;37.656;2023-06-22T04:00:01;9.63;;;4.90;;
43813;SDS011;29669;55.706;37.656;2023-06-22T04:02:38;9.88;;;4.32;;
43813;SDS011;29669;55.706;37.656;2023-06-22T04:05:08;8.82;;;4.60;;
43813;SDS011;29669;55.706;37.656;2023-06-22T04:07:36;7.68;;;4.00;;
43813;SDS011;29669;55.706;37.656;2023-06-22T04:10:04;10.40;;;4.82;;
43813;SDS011;29669;55.706;37.656;2023-06-22T04:12:33;12.48;;;5.38;;
43813;SDS011;29669;55.706;37.656;2023-06-22T04:15:01;13.13;;;5.03;;
43813;SDS011;29669;55.706;37.656;2023-06-22T04:17:32;5.90;;;3.55;;
43813;SDS011;29669;55.706;37.656;2023-06-22T04:20:00;8.65;;;4.07;;
43813;SDS011;29669;55.706;37.656;2023-06-22T04:22:30;5.90;;;3.50;;
43813;SDS011;29669;55.706;37.656;2023-06-22T04:24:58;6.65;;;3.80;;
43813;SDS011;29669;55.706;37.656;2023-06-22T04:27:26;7.20;;;4.32;;
43813;SDS011;29669;55.706;37.656;2023-06-22T04:29:53;5.93;;;3.88;;
43813;SDS011;29669;55.706;37.656;2023-06-22T04:32:21;10.52;;;3.92;;
43813;SDS011;29669;55.706;37.656;2023-06-22T04:34:48;5.20;;;3.35;;
43813;SDS011;29669;55.706;37.656;2023-06-22T04:37:16;9.25;;;3.50;;
43813;SDS011;29669;55.706;37.656;2023-06-22T04:39:43;6.60;;;3.80;;
43813;SDS011;29669;55.706;37.656;2023-06-22T04:42:12;3.00;;;2.70;;
43813;SDS011;29669;55.706;37.656;2023-06-22T04:44:40;5.95;;;3.17;;
43813;SDS011;29669;55.706;37.656;2023-06-22T04:47:09;7.20;;;3.53;;
43813;SDS011;29669;55.706;37.656;2023-06-22T04:49:37;5.35;;;3.28;;
43813;SDS011;29669;55.706;37.656;2023-06-22T04:52:05;7.05;;;3.30;;
43813;SDS011;29669;55.706;37.656;2023-06-22T04:54:35;3.90;;;3.03;;
43813;SDS011;29669;55.706;37.656;2023-06-22T04:57:05;4.28;;;3.47;;
43813;SDS011;29669;55.706;37.656;2023-06-22T04:59:37;4.13;;;3.20;;
43813;SDS011;29669;55.706;37.656;2023-06-22T05:02:09;7.18;;;3.35;;
43813;SDS011;29669;55.706;37.656;2023-06-22T05:04:37;5.93;;;3.33;;
43813;SDS011;29669;55.706;37.656;2023-06-22T05:07:08;5.72;;;3.30;;
43813;SDS011;29669;55.706;37.656;2023-06-22T05:09:37;4.63;;;3.30;;
43813;SDS011;29669;55.706;37.656;2023-06-22T05:12:05;4.50;;;3.42;;
43813;SDS011;29669;55.706;37.656;2023-06-22T05:14:35;5.38;;;3.50;;
43813;SDS011;29669;55.706;37.656;2023-06-22T05:17:03;4.85;;;3.33;;
43813;SDS011;29669;55.706;37.656;2023-06-22T05:19:31;10.65;;;3.75;;
43813;SDS011;29669;55.706;37.656;2023-06-22T05:22:01;6.43;;;3.38;;
43813;SDS011;29669;55.706;37.656;2023-06-22T05:24:29;4.63;;;3.28;;
43813;SDS011;29669;55.706;37.656;2023-06-22T05:26:57;5.82;;;3.17;;
43813;SDS011;29669;55.706;37.656;2023-06-22T05:29:25;5.63;;;3.38;;
43813;SDS011;29669;55.706;37.656;2023-06-22T05:31:54;6.55;;;3.63;;
43813;SDS011;29669;55.706;37.656;2023-06-22T05:34:21;7.32;;;3.63;;
43813;SDS011;29669;55.706;37.656;2023-06-22T05:36:49;4.55;;;3.13;;
43813;SDS011;29669;55.706;37.656;2023-06-22T05:39:17;6.45;;;3.63;;
43813;SDS011;29669;55.706;37.656;2023-06-22T05:41:45;8.25;;;4.72;;
43813;SDS011;29669;55.706;37.656;2023-06-22T05:44:13;6.50;;;3.45;;
43813;SDS011;29669;55.706;37.656;2023-06-22T05:46:42;9.52;;;3.47;;
43813;SDS011;29669;55.706;37.656;2023-06-22T05:49:12;6.53;;;3.40;;
43813;SDS011;29669;55.706;37.656;2023-06-22T05:51:40;5.13;;;3.35;;
43813;SDS011;29669;55.706;37.656;2023-06-22T05:54:08;5.65;;;3.42;;
43813;SDS011;29669;55.706;37.656;2023-06-22T05:56:37;3.85;;;3.30;;
43813;SDS011;29669;55.706;37.656;2023-06-22T05:59:05;6.53;;;3.95;;
43813;SDS011;29669;55.706;37.656;2023-06-22T06:01:32;5.63;;;3.63;;
43813;SDS011;29669;55.706;37.656;2023-06-22T06:04:03;5.07;;;3.78;;
43813;SDS011;29669;55.706;37.656;2023-06-22T06:06:35;4.47;;;3.67;;
43813;SDS011;29669;55.706;37.656;2023-06-22T06:09:04;5.95;;;3.50;;
43813;SDS011;29669;55.706;37.656;2023-06-22T06:11:32;6.85;;;4.07;;
43813;SDS011;29669;55.706;37.656;2023-06-22T06:14:00;6.63;;;3.47;;
43813;SDS011;29669;55.706;37.656;2023-06-22T06:16:28;4.97;;;3.30;;
43813;SDS011;29669;55.706;37.656;2023-06-22T06:18:55;4.75;;;3.20;;
43813;SDS011;29669;55.706;37.656;2023-06-22T06:21:23;4.97;;;3.42;;
43813;SDS011;29669;55.706;37.656;2023-06-22T06:23:51;5.80;;;3.58;;
43813;SDS011;29669;55.706;37.656;2023-06-22T06:26:22;5.38;;;3.10;;
43813;SDS011;29669;55.706;37.656;2023-06-22T06:28:56;7.45;;;3.20;;
43813;SDS011;29669;55.706;37.656;2023-06-22T06:31:24;3.92;;;3.55;;
43813;SDS011;29669;55.706;37.656;2023-06-22T06:33:55;4.53;;;3.60;;
43813;SDS011;29669;55.706;37.656;2023-06-22T06:36:22;6.35;;;3.40;;
43813;SDS011;29669;55.706;37.656;2023-06-22T06:38:50;8.60;;;3.30;;
43813;SDS011;29669;55.706;37.656;2023-06-22T06:41:18;6.10;;;3.47;;
43813;SDS011;29669;55.706;37.656;2023-06-22T06:43:46;4.93;;;3.85;;
43813;SDS011;29669;55.706;37.656;2023-06-22T06:46:14;5.03;;;3.88;;
43813;SDS011;29669;55.706;37.656;2023-06-22T06:48:42;3.63;;;3.30;;
43813;SDS011;29669;55.706;37.656;2023-06-22T06:51:10;5.82;;;3.75;;
43813;SDS011;29669;55.706;37.656;2023-06-22T06:53:37;8.57;;;3.88;;
43813;SDS011;29669;55.706;37.656;2023-06-22T06:56:05;4.85;;;3.72;;
43813;SDS011;29669;55.706;37.656;2023-06-22T06:58:33;6.85;;;3.78;;
43813;SDS011;29669;55.706;37.656;2023-06-22T07:01:01;5.57;;;3.25;;
43813;SDS011;29669;55.706;37.656;2023-06-22T07:03:29;7.78;;;3.75;;
43813;SDS011;29669;55.706;37.656;2023-06-22T07:05:57;6.20;;;3.92;;
43813;SDS011;29669;55.706;37.656;2023-06-22T07:08:24;4.72;;;3.63;;
43813;SDS011;29669;55.706;37.656;2023-06-22T07:10:52;9.60;;;4.45;;
43813;SDS011;29669;55.706;37.656;2023-06-22T07:13:20;4.72;;;3.78;;
43813;SDS011;29669;55.706;37.656;2023-06-22T07:15:48;5.97;;;4.00;;
43813;SDS011;29669;55.706;37.656;2023-06-22T07:18:15;9.35;;;4.43;;
43813;SDS011;29669;55.706;37.656;2023-06-22T07:20:43;8.65;;;4.60;;
43813;SDS011;29669;55.706;37.656;2023-06-22T07:23:11;8.73;;;4.18;;
43813;SDS011;29669;55.706;37.656;2023-06-22T07:25:38;5.20;;;3.53;;
43813;SDS011;29669;55.706;37.656;2023-06-22T07:28:06;7.03;;;3.70;;
43813;SDS011;29669;55.706;37.656;2023-06-22T07:30:34;4.65;;;3.88;;
43813;SDS011;29669;55.706;37.656;2023-06-22T07:33:03;4.65;;;3.60;;
43813;SDS011;29669;55.706;37.656;2023-06-22T07:35:32;4.57;;;3.70;;
43813;SDS011;29669;55.706;37.656;2023-06-22T07:37:59;7.85;;;4.07;;
43813;SDS011;29669;55.706;37.656;2023-06-22T07:40:32;5.57;;;3.97;;
43813;SDS011;29669;55.706;37.656;2023-06-22T07:43:01;7.65;;;4.05;;
43813;SDS011;29669;55.706;37.656;2023-06-22T07:45:30;5.47;;;3.97;;
43813;SDS011;29669;55.706;37.656;2023-06-22T07:48:01;5.57;;;3.92;;
43813;SDS011;29669;55.706;37.656;2023-06-22T07:50:29;4.15;;;3.50;;
43813;SDS011;29669;55.706;37.656;2023-06-22T07:52:57;4.15;;;3.75;;
43813;SDS011;29669;55.706;37.656;2023-06-22T07:55:25;5.30;;;3.97;;
43813;SDS011;29669;55.706;37.656;2023-06-22T07:57:53;4.53;;;3.90;;
43813;SDS011;29669;55.706;37.656;2023-06-22T08:00:20;6.40;;;4.05;;
43813;SDS011;29669;55.706;37.656;2023-06-22T08:02:48;10.07;;;4.05;;
43813;SDS011;29669;55.706;37.656;2023-06-22T08:05:16;5.82;;;4.65;;
43813;SDS011;29669;55.706;37.656;2023-06-22T08:07:49;6.95;;;3.75;;
43813;SDS011;29669;55.706;37.656;2023-06-22T08:10:17;5.35;;;3.50;;
43813;SDS011;29669;55.706;37.656;2023-06-22T08:12:45;4.95;;;3.97;;
43813;SDS011;29669;55.706;37.656;2023-06-22T08:15:12;6.85;;;3.80;;
43813;SDS011;29669;55.706;37.656;2023-06-22T08:17:40;8.15;;;4.13;;
43813;SDS011;29669;55.706;37.656;2023-06-22T08:20:08;10.02;;;4.22;;
43813;SDS011;29669;55.706;37.656;2023-06-22T08:22:40;6.63;;;3.67;;
43813;SDS011;29669;55.706;37.656;2023-06-22T08:25:09;10.63;;;3.88;;
43813;SDS011;29669;55.706;37.656;2023-06-22T08:27:37;4.75;;;4.07;;
43813;SDS011;29669;55.706;37.656;2023-06-22T08:30:05;4.78;;;4.03;;
43813;SDS011;29669;55.706;37.656;2023-06-22T08:32:35;6.13;;;4.20;;
43813;SDS011;29669;55.706;37.656;2023-06-22T08:35:03;8.90;;;4.05;;
43813;SDS011;29669;55.706;37.656;2023-06-22T08:37:33;8.20;;;4.50;;
43813;SDS011;29669;55.706;37.656;2023-06-22T08:40:03;6.35;;;3.78;;
43813;SDS011;29669;55.706;37.656;2023-06-22T08:42:33;5.97;;;3.28;;
43813;SDS011;29669;55.706;37.656;2023-06-22T08:45:01;4.50;;;3.92;;
43813;SDS011;29669;55.706;37.656;2023-06-22T08:47:33;5.15;;;3.97;;
43813;SDS011;29669;55.706;37.656;2023-06-22T08:50:01;5.35;;;3.67;;
43813;SDS011;29669;55.706;37.656;2023-06-22T08:52:33;5.50;;;3.70;;
43813;SDS011;29669;55.706;37.656;2023-06-22T08:55:01;4.97;;;3.30;;
43813;SDS011;29669;55.706;37.656;2023-06-22T08:57:33;4.15;;;3.75;;
43813;SDS011;29669;55.706;37.656;2023-06-22T09:00:01;6.82;;;3.80;;
43813;SDS011;29669;55.706;37.656;2023-06-22T09:02:34;6.63;;;3.83;;
43813;SDS011;29669;55.706;37.656;2023-06-22T09:05:03;4.57;;;3.30;;
43813;SDS011;29669;55.706;37.656;2023-06-22T09:07:32;7.88;;;4.07;;
43813;SDS011;29669;55.706;37.656;2023-06-22T09:10:02;4.55;;;3.40;;
43813;SDS011;29669;55.706;37.656;2023-06-22T09:12:34;7.13;;;4.32;;
43813;SDS011;29669;55.706;37.656;2023-06-22T09:15:04;10.07;;;4.40;;
43813;SDS011;29669;55.706;37.656;2023-06-22T09:17:37;6.75;;;4.07;;
43813;SDS011;29669;55.706;37.656;2023-06-22T09:20:05;11.45;;;4.05;;
43813;SDS011;29669;55.706;37.656;2023-06-22T09:22:34;7.28;;;4.30;;
43813;SDS011;29669;55.706;37.656;2023-06-22T09:25:02;6.45;;;4.05;;
43813;SDS011;29669;55.706;37.656;2023-06-22T09:27:34;4.63;;;4.03;;
43813;SDS011;29669;55.706;37.656;2023-06-22T09:30:02;5.82;;;4.05;;
43813;SDS011;29669;55.706;37.656;2023-06-22T09:32:32;6.57;;;3.90;;
43813;SDS011;29669;55.706;37.656;2023-06-22T09:35:03;5.78;;;3.83;;
43813;SDS011;29669;55.706;37.656;2023-06-22T09:37:37;5.38;;;3.50;;
43813;SDS011;29669;55.706;37.656;2023-06-22T09:40:06;4.45;;;3.72;;
43813;SDS011;29669;55.706;37.656;2023-06-22T09:42:38;5.45;;;3.92;;
43813;SDS011;29669;55.706;37.656;2023-06-22T09:45:06;5.43;;;3.53;;
43813;SDS011;29669;55.706;37.656;2023-06-22T09:47:35;5.20;;;3.78;;
43813;SDS011;29669;55.706;37.656;2023-06-22T09:50:03;7.28;;;4.00;;
43813;SDS011;29669;55.706;37.656;2023-06-22T09:52:32;4.90;;;3.70;;
43813;SDS011;29669;55.706;37.656;2023-06-22T09:55:14;6.30;;;4.10;;
43813;SDS011;29669;55.706;37.656;2023-06-22T09:57:45;5.70;;;3.90;;
43813;SDS011;29669;55.706;37.656;2023-06-22T10:00:13;5.07;;;4.13;;
43813;SDS011;29669;55.706;37.656;2023-06-22T10:02:43;8.30;;;4.57;;
43813;SDS011;29669;55.706;37.656;2023-06-22T10:05:11;6.40;;;3.88;;
43813;SDS011;29669;55.706;37.656;2023-06-22T10:07:39;5.82;;;4.00;;
43813;SDS011;29669;55.706;37.656;2023-06-22T10:10:10;8.95;;;4.25;;
43813;SDS011;29669;55.706;37.656;2023-06-22T10:12:44;4.93;;;4.10;;
43813;SDS011;29669;55.706;37.656;2023-06-22T10:15:13;4.80;;;3.83;;
43813;SDS011;29669;55.706;37.656;2023-06-22T10:17:42;5.28;;;3.70;;
43813;SDS011;29669;55.706;37.656;2023-06-22T10:20:10;6.20;;;4.28;;
43813;SDS011;29669;55.706;37.656;2023-06-22T10:22:40;5.38;;;4.18;;
43813;SDS011;29669;55.706;37.656;2023-06-22T10:25:09;4.78;;;3.83;;
43813;SDS011;29669;55.706;37.656;2023-06-22T10:27:40;4.63;;;4.10;;
43813;SDS011;29669;55.706;37.656;2023-06-22T10:30:08;7.00;;;4.25;;
43813;SDS011;29669;55.706;37.656;2023-06-22T10:32:37;5.43;;;4.18;;
43813;SDS011;29669;55.706;37.656;2023-06-22T10:35:06;5.10;;;4.45;;
43813;SDS011;29669;55.706;37.656;2023-06-22T10:37:35;6.53;;;4.07;;
43813;SDS011;29669;55.706;37.656;2023-06-22T10:40:06;4.47;;;3.80;;
43813;SDS011;29669;55.706;37.656;2023-06-22T10:42:35;5.65;;;3.95;;
43813;SDS011;29669;55.706;37.656;2023-06-22T10:45:03;6.50;;;4.85;;
43813;SDS011;29669;55.706;37.656;2023-06-22T10:47:31;7.80;;;4.32;;
43813;SDS011;29669;55.706;37.656;2023-06-22T10:49:58;7.50;;;4.18;;
43813;SDS011;29669;55.706;37.656;2023-06-22T10:52:26;5.57;;;4.22;;
43813;SDS011;29669;55.706;37.656;2023-06-22T10:54:54;6.30;;;4.28;;
43813;SDS011;29669;55.706;37.656;2023-06-22T10:57:22;8.18;;;4.60;;
43813;SDS011;29669;55.706;37.656;2023-06-22T10:59:50;4.57;;;4.15;;
43813;SDS011;29669;55.706;37.656;2023-06-22T11:02:18;6.20;;;4.38;;
43813;SDS011;29669;55.706;37.656;2023-06-22T11:04:46;5.05;;;4.30;;
43813;SDS011;29669;55.706;37.656;2023-06-22T11:07:15;6.20;;;4.80;;
43813;SDS011;29669;55.706;37.656;2023-06-22T11:09:43;5.30;;;4.10;;
43813;SDS011;29669;55.706;37.656;2023-06-22T11:12:11;8.23;;;4.95;;
43813;SDS011;29669;55.706;37.656;2023-06-22T11:14:39;6.93;;;4.43;;
43813;SDS011;29669;55.706;37.656;2023-06-22T11:17:07;5.20;;;4.68;;
43813;SDS011;29669;55.706;37.656;2023-06-22T11:19:34;6.82;;;4.35;;
43813;SDS011;29669;55.706;37.656;2023-06-22T11:22:02;9.35;;;4.85;;
43813;SDS011;29669;55.706;37.656;2023-06-22T11:24:33;15.98;;;10.68;;
43813;SDS011;29669;55.706;37.656;2023-06-22T11:27:00;6.80;;;4.53;;
43813;SDS011;29669;55.706;37.656;2023-06-22T11:29:28;5.40;;;4.38;;
43813;SDS011;29669;55.706;37.656;2023-06-22T11:32:04;6.03;;;4.70;;
43813;SDS011;29669;55.706;37.656;2023-06-22T11:34:33;6.70;;;4.45;;
43813;SDS011;29669;55.706;37.656;2023-06-22T11:37:01;8.00;;;5.00;;
43813;SDS011;29669;55.706;37.656;2023-06-22T11:39:29;9.40;;;5.60;;
43813;SDS011;29669;55.706;37.656;2023-06-22T11:42:07;6.07;;;4.78;;
43813;SDS011;29669;55.706;37.656;2023-06-22T11:44:36;7.28;;;4.80;;
43813;SDS011;29669;55.706;37.656;2023-06-22T11:47:04;5.60;;;5.03;;
43813;SDS011;29669;55.706;37.656;2023-06-22T11:49:32;6.63;;;4.85;;
43813;SDS011;29669;55.706;37.656;2023-06-22T11:51:59;10.00;;;4.43;;
43813;SDS011;29669;55.706;37.656;2023-06-22T11:54:27;11.15;;;5.20;;
43813;SDS011;29669;55.706;37.656;2023-06-22T11:56:54;5.68;;;4.35;;
43813;SDS011;29669;55.706;37.656;2023-06-22T11:59:22;7.40;;;5.03;;
43813;SDS011;29669;55.706;37.656;2023-06-22T12:01:50;7.72;;;5.00;;
43813;SDS011;29669;55.706;37.656;2023-06-22T12:04:19;6.80;;;4.75;;
43813;SDS011;29669;55.706;37.656;2023-06-22T12:06:47;6.75;;;4.40;;
43813;SDS011;29669;55.706;37.656;2023-06-22T12:09:15;9.27;;;4.30;;
43813;SDS011;29669;55.706;37.656;2023-06-22T12:11:42;10.77;;;5.50;;
43813;SDS011;29669;55.706;37.656;2023-06-22T12:14:10;5.10;;;4.07;;
43813;SDS011;29669;55.706;37.656;2023-06-22T12:16:38;9.20;;;5.13;;
43813;SDS011;29669;55.706;37.656;2023-06-22T12:19:05;7.85;;;4.65;;
43813;SDS011;29669;55.706;37.656;2023-06-22T12:21:33;7.05;;;5.10;;
43813;SDS011;29669;55.706;37.656;2023-06-22T12:24:01;9.90;;;4.60;;
43813;SDS011;29669;55.706;37.656;2023-06-22T12:26:29;5.90;;;4.78;;
43813;SDS011;29669;55.706;37.656;2023-06-22T12:28:56;8.25;;;4.60;;
43813;SDS011;29669;55.706;37.656;2023-06-22T12:31:24;6.68;;;4.55;;
43813;SDS011;29669;55.706;37.656;2023-06-22T12:33:52;5.68;;;4.60;;
43813;SDS011;29669;55.706;37.656;2023-06-22T12:36:20;4.63;;;4.13;;
43813;SDS011;29669;55.706;37.656;2023-06-22T12:38:48;11.15;;;5.00;;
43813;SDS011;29669;55.706;37.656;2023-06-22T12:41:15;9.63;;;5.60;;
43813;SDS011;29669;55.706;37.656;2023-06-22T12:43:43;10.40;;;5.03;;
43813;SDS011;29669;55.706;37.656;2023-06-22T12:46:11;12.70;;;5.75;;
43813;SDS011;29669;55.706;37.656;2023-06-22T12:48:38;10.25;;;5.85;;
43813;SDS011;29669;55.706;37.656;2023-06-22T12:51:10;8.30;;;5.03;;
43813;SDS011;29669;55.706;37.656;2023-06-22T12:53:37;9.05;;;4.65;;
43813;SDS011;29669;55.706;37.656;2023-06-22T12:56:05;8.02;;;5.22;;
43813;SDS011;29669;55.706;37.656;2023-06-22T12:58:33;8.38;;;5.93;;
43813;SDS011;29669;55.706;37.656;2023-06-22T13:01:00;11.60;;;5.35;;
43813;SDS011;29669;55.706;37.656;2023-06-22T13:03:28;7.68;;;4.85;;
43813;SDS011;29669;55.706;37.656;2023-06-22T13:05:56;9.07;;;4.88;;
43813;SDS011;29669;55.706;37.656;2023-06-22T13:08:23;6.20;;;4.78;;
43813;SDS011;29669;55.706;37.656;2023-06-22T13:11:10;6.40;;;5.07;;
43813;SDS011;29669;55.706;37.656;2023-06-22T13:13:38;7.15;;;4.80;;
43813;SDS011;29669;55.706;37.656;2023-06-22T13:16:06;6.85;;;4.28;;
43813;SDS011;29669;55.706;37.656;2023-06-22T13:18:34;6.03;;;4.68;;
43813;SDS011;29669;55.706;37.656;2023-06-22T13:21:03;7.95;;;5.43;;
43813;SDS011;29669;55.706;37.656;2023-06-22T13:23:31;7.68;;;4.85;;
43813;SDS011;29669;55.706;37.656;2023-06-22T13:25:59;6.43;;;4.97;;
43813;SDS011;29669;55.706;37.656;2023-06-22T13:28:27;9.30;;;6.00;;
43813;SDS011;29669;55.706;37.656;2023-06-22T13:30:57;6.43;;;4.53;;
43813;SDS011;29669;55.706;37.656;2023-06-22T13:33:25;6.82;;;3.97;;
43813;SDS011;29669;55.706;37.656;2023-06-22T13:35:53;7.50;;;4.40;;
43813;SDS011;29669;55.706;37.656;2023-06-22T13:38:20;8.10;;;4.43;;
43813;SDS011;29669;55.706;37.656;2023-06-22T13:40:49;5.35;;;4.10;;
43813;SDS011;29669;55.706;37.656;2023-06-22T13:43:17;5.97;;;4.35;;
43813;SDS011;29669;55.706;37.656;2023-06-22T13:45:45;7.30;;;4.57;;
43813;SDS011;29669;55.706;37.656;2023-06-22T13:48:12;5.00;;;3.92;;
43813;SDS011;29669;55.706;37.656;2023-06-22T13:50:40;7.65;;;4.47;;
43813;SDS011;29669;55.706;37.656;2023-06-22T13:53:08;5.93;;;4.40;;
43813;SDS011;29669;55.706;37.656;2023-06-22T13:55:36;5.68;;;4.30;;
43813;SDS011;29669;55.706;37.656;2023-06-22T13:58:03;7.25;;;4.72;;
43813;SDS011;29669;55.706;37.656;2023-06-22T14:00:31;7.28;;;4.82;;
43813;SDS011;29669;55.706;37.656;2023-06-22T14:02:59;8.90;;;4.65;;
43813;SDS011;29669;55.706;37.656;2023-06-22T14:05:27;9.23;;;5.72;;
43813;SDS011;29669;55.706;37.656;2023-06-22T14:07:54;7.68;;;4.93;;
43813;SDS011;29669;55.706;37.656;2023-06-22T14:10:22;10.70;;;5.25;;
43813;SDS011;29669;55.706;37.656;2023-06-22T14:12:49;9.07;;;4.78;;
43813;SDS011;29669;55.706;37.656;2023-06-22T14:15:17;13.77;;;4.75;;
43813;SDS011;29669;55.706;37.656;2023-06-22T14:17:45;8.98;;;4.97;;
43813;SDS011;29669;55.706;37.656;2023-06-22T14:20:13;10.88;;;5.75;;
43813;SDS011;29669;55.706;37.656;2023-06-22T14:22:40;10.25;;;5.07;;
43813;SDS011;29669;55.706;37.656;2023-06-22T14:25:08;6.50;;;5.93;;
43813;SDS011;29669;55.706;37.656;2023-06-22T14:27:36;7.35;;;4.78;;
43813;SDS011;29669;55.706;37.656;2023-06-22T14:30:04;5.13;;;4.38;;
43813;SDS011;29669;55.706;37.656;2023-06-22T14:32:33;12.02;;;5.70;;
43813;SDS011;29669;55.706;37.656;2023-06-22T14:35:01;6.20;;;5.60;;
43813;SDS011;29669;55.706;37.656;2023-06-22T14:37:30;5.38;;;4.38;;
43813;SDS011;29669;55.706;37.656;2023-06-22T14:39:58;6.53;;;4.57;;
43813;SDS011;29669;55.706;37.656;2023-06-22T14:42:26;5.53;;;4.60;;
43813;SDS011;29669;55.706;37.656;2023-06-22T14:44:54;5.28;;;4.78;;
43813;SDS011;29669;55.706;37.656;2023-06-22T14:47:22;4.78;;;4.07;;